Time;durP1;ratioP1;P1;durP2;ratioP2;P2;SDS_P1;SDS_P2;PMS_P1;PMS_P2;Temp;Humidity;BMP_temperature;BMP_pressure;BME280_temperature;BME280_humidity;BME280_pressure;Samples;Min_cycle;Max_cycle;Signal;HPM_P1;HPM_P2
2021/07/06 00:01:19;;;;;;;14.60;13.08;;;;;;;;;;257091;1095;103041;-71
2021/07/06 00:06:21;;;;;;;15.00;13.48;;;;;;;;;;257251;1095;103150;-73
2021/07/06 00:11:23;;;;;;;14.00;12.80;;;;;;;;;;256082;1093;103523;-73
2021/07/06 00:16:25;;;;;;;13.70;12.40;;;;;;;;;;256176;1093;103187;-72
2021/07/06 00:21:27;;;;;;;14.95;13.50;;;;;;;;;;256059;1093;103012;-74
2021/07/06 00:26:29;;;;;;;14.40;13.08;;;;;;;;;;256017;1093;103111;-70
2021/07/06 00:31:31;;;;;;;14.33;13.03;;;;;;;;;;256142;1093;103058;-73
2021/07/06 00:36:33;;;;;;;14.05;12.68;;;;;;;;;;256737;1093;103070;-71
2021/07/06 00:41:37;;;;;;;14.48;13.05;;;;;;;;;;259079;1093;103018;-72
2021/07/06 00:46:39;;;;;;;13.20;12.00;;;;;;;;;;256621;1092;103068;-73
2021/07/06 00:51:41;;;;;;;14.70;13.38;;;;;;;;;;256060;1093;102996;-75
2021/07/06 00:56:44;;;;;;;14.78;13.28;;;;;;;;;;255821;1093;103015;-74
2021/07/06 01:01:46;;;;;;;13.95;12.60;;;;;;;;;;256085;1093;103267;-74
2021/07/06 01:06:48;;;;;;;13.70;12.50;;;;;;;;;;255819;1093;103566;-75
2021/07/06 01:11:50;;;;;;;13.35;12.05;;;;;;;;;;256007;1093;103020;-73
2021/07/06 01:16:52;;;;;;;14.70;13.30;;;;;;;;;;256135;1093;102991;-74
2021/07/06 01:21:54;;;;;;;13.68;12.48;;;;;;;;;;256315;1092;103012;-73
2021/07/06 01:26:55;;;;;;;15.25;13.65;;;;;;;;;;259466;1093;103678;-74
2021/07/06 01:31:57;;;;;;;14.23;12.93;;;;;;;;;;256051;1096;103843;-74
2021/07/06 01:36:59;;;;;;;15.13;13.73;;;;;;;;;;255879;1097;103051;-72
2021/07/06 01:42:01;;;;;;;15.98;14.38;;;;;;;;;;255941;1097;103055;-71
2021/07/06 01:47:03;;;;;;;14.95;13.55;;;;;;;;;;255992;1095;103093;-73
2021/07/06 01:52:05;;;;;;;15.03;13.73;;;;;;;;;;255953;1095;103092;-72
2021/07/06 01:57:07;;;;;;;13.93;12.53;;;;;;;;;;256228;1097;103017;-73
2021/07/06 02:02:10;;;;;;;19.70;17.80;;;;;;;;;;256215;1095;103007;-73
2021/07/06 02:07:11;;;;;;;15.30;14.00;;;;;;;;;;256394;1097;103019;-71
2021/07/06 02:12:13;;;;;;;15.95;14.28;;;;;;;;;;255999;1097;103047;-73
2021/07/06 02:17:15;;;;;;;16.45;14.88;;;;;;;;;;256077;1095;103687;-71
2021/07/06 02:22:18;;;;;;;15.08;13.68;;;;;;;;;;256247;1096;103099;-75
2021/07/06 02:27:20;;;;;;;13.78;12.58;;;;;;;;;;256316;1096;103033;-73
2021/07/06 02:32:22;;;;;;;13.83;12.60;;;;;;;;;;256088;1096;103028;-74
2021/07/06 02:37:23;;;;;;;14.37;13.10;;;;;;;;;;255985;1095;103092;-73
2021/07/06 02:42:25;;;;;;;14.70;13.38;;;;;;;;;;255774;1095;103023;-72
2021/07/06 02:47:27;;;;;;;15.33;13.83;;;;;;;;;;256104;1095;103153;-72
2021/07/06 02:52:29;;;;;;;15.05;13.53;;;;;;;;;;255946;1096;103028;-72
2021/07/06 02:57:38;;;;;;;15.30;14.00;;;;;;;;;;255906;1094;103096;-72
2021/07/06 03:02:42;;;;;;;15.03;13.63;;;;;;;;;;256104;1095;103264;-73
2021/07/06 03:07:44;;;;;;;15.33;13.95;;;;;;;;;;255962;1095;103021;-72
2021/07/06 03:12:46;;;;;;;14.87;13.37;;;;;;;;;;255768;1096;103054;-72
2021/07/06 03:17:49;;;;;;;14.55;13.23;;;;;;;;;;255867;1095;103121;-71
2021/07/06 03:22:50;;;;;;;16.50;14.80;;;;;;;;;;255875;1095;103018;-73
2021/07/06 03:27:53;;;;;;;15.58;14.18;;;;;;;;;;255897;1095;103332;-73
2021/07/06 03:32:56;;;;;;;16.58;14.88;;;;;;;;;;255912;1096;103028;-73
2021/07/06 03:37:58;;;;;;;16.33;14.95;;;;;;;;;;255927;1097;103614;-72
2021/07/06 03:43:00;;;;;;;17.30;15.60;;;;;;;;;;255840;1094;103038;-73
2021/07/06 03:48:02;;;;;;;15.63;14.20;;;;;;;;;;258653;1097;103146;-74
2021/07/06 03:53:06;;;;;;;16.68;14.83;;;;;;;;;;255939;1096;103115;-73
2021/07/06 03:58:08;;;;;;;17.88;16.08;;;;;;;;;;255993;1096;103422;-73
2021/07/06 04:03:10;;;;;;;18.58;16.73;;;;;;;;;;255836;1096;103085;-72
2021/07/06 04:08:11;;;;;;;20.75;18.88;;;;;;;;;;255829;1097;103134;-73
2021/07/06 04:13:13;;;;;;;19.90;17.90;;;;;;;;;;256801;1095;103044;-72
2021/07/06 04:18:15;;;;;;;21.93;19.73;;;;;;;;;;255781;1095;103053;-72
2021/07/06 04:23:17;;;;;;;17.70;16.20;;;;;;;;;;256228;1096;103113;-75
2021/07/06 04:28:19;;;;;;;16.20;14.80;;;;;;;;;;256829;1095;103017;-75
2021/07/06 04:33:21;;;;;;;17.33;14.75;;;;;;;;;;257667;1095;103017;-72
2021/07/06 04:38:23;;;;;;;15.63;14.35;;;;;;;;;;256486;1095;111175;-70
2021/07/06 04:43:24;;;;;;;15.78;14.48;;;;;;;;;;255755;1095;103125;-75
2021/07/06 04:48:26;;;;;;;14.10;12.90;;;;;;;;;;255762;1096;104516;-74
2021/07/06 04:53:28;;;;;;;15.00;13.60;;;;;;;;;;255986;1095;103028;-73
2021/07/06 04:58:30;;;;;;;15.10;13.53;;;;;;;;;;255987;1095;103087;-74
2021/07/06 05:03:32;;;;;;;14.83;13.53;;;;;;;;;;256745;1096;103020;-72
2021/07/06 05:08:34;;;;;;;15.15;13.75;;;;;;;;;;255791;1096;103111;-71
2021/07/06 05:13:36;;;;;;;15.00;13.80;;;;;;;;;;256762;1095;103095;-75
2021/07/06 05:18:38;;;;;;;14.27;12.77;;;;;;;;;;255872;1096;103065;-76
2021/07/06 05:23:40;;;;;;;15.23;13.88;;;;;;;;;;256693;1095;103539;-75
2021/07/06 05:28:41;;;;;;;17.43;15.88;;;;;;;;;;255796;1096;103092;-76
2021/07/06 05:33:43;;;;;;;15.75;14.50;;;;;;;;;;255934;1095;103384;-75
2021/07/06 05:38:45;;;;;;;17.30;15.70;;;;;;;;;;255710;1096;103086;-75
2021/07/06 05:43:47;;;;;;;15.58;14.13;;;;;;;;;;255698;1094;103282;-73
2021/07/06 05:48:49;;;;;;;15.23;13.93;;;;;;;;;;255705;1095;103116;-75
2021/07/06 05:53:51;;;;;;;13.70;12.60;;;;;;;;;;256307;1095;103044;-75
2021/07/06 05:58:53;;;;;;;15.98;14.38;;;;;;;;;;255795;1094;103014;-73
2021/07/06 06:03:55;;;;;;;13.58;12.28;;;;;;;;;;255873;1095;103131;-72
2021/07/06 06:08:57;;;;;;;14.67;13.43;;;;;;;;;;255777;1096;103153;-72
2021/07/06 06:13:59;;;;;;;15.68;14.23;;;;;;;;;;256036;1094;103087;-72
2021/07/06 06:19:00;;;;;;;16.45;14.95;;;;;;;;;;255742;1096;103052;-72
2021/07/06 06:24:02;;;;;;;15.10;13.55;;;;;;;;;;255754;1095;103106;-72
2021/07/06 06:29:04;;;;;;;15.20;13.88;;;;;;;;;;256110;1095;103095;-71
2021/07/06 06:34:06;;;;;;;15.55;14.15;;;;;;;;;;255793;1096;103588;-72
2021/07/06 06:39:08;;;;;;;16.58;15.08;;;;;;;;;;255892;1095;103093;-72
2021/07/06 06:44:10;;;;;;;15.73;14.08;;;;;;;;;;255901;1096;103087;-74
2021/07/06 06:49:12;;;;;;;16.10;14.50;;;;;;;;;;256082;1094;103092;-71
2021/07/06 06:54:14;;;;;;;16.88;14.83;;;;;;;;;;255924;1096;103007;-73
2021/07/06 06:59:16;;;;;;;15.48;14.13;;;;;;;;;;256050;1095;103180;-72
2021/07/06 07:04:18;;;;;;;15.88;14.15;;;;;;;;;;257356;1096;103095;-72
2021/07/06 07:09:19;;;;;;;15.75;14.25;;;;;;;;;;256067;1095;103134;-73
2021/07/06 07:14:21;;;;;;;13.10;12.10;;;;;;;;;;255909;1096;103033;-73
2021/07/06 07:19:23;;;;;;;18.77;17.07;;;;;;;;;;256061;1094;103413;-72
2021/07/06 07:24:25;;;;;;;18.33;16.48;;;;;;;;;;255924;1095;103140;-75
2021/07/06 07:29:27;;;;;;;18.10;16.20;;;;;;;;;;255835;1096;103838;-74
2021/07/06 07:34:29;;;;;;;17.33;15.73;;;;;;;;;;256240;1095;103208;-73
2021/07/06 07:39:32;;;;;;;15.25;13.88;;;;;;;;;;256009;1095;103087;-76
2021/07/06 07:44:34;;;;;;;13.65;12.25;;;;;;;;;;255871;1096;103107;-75
2021/07/06 07:49:36;;;;;;;13.00;11.70;;;;;;;;;;255755;1095;103151;-73
2021/07/06 07:54:38;;;;;;;12.65;11.75;;;;;;;;;;255901;1095;103088;-72
2021/07/06 07:59:40;;;;;;;12.13;11.03;;;;;;;;;;256203;1096;103019;-72
2021/07/06 08:04:42;;;;;;;14.15;12.68;;;;;;;;;;255859;1096;103028;-71
2021/07/06 08:09:44;;;;;;;12.15;11.05;;;;;;;;;;256413;1095;103087;-72
2021/07/06 08:14:48;;;;;;;16.13;14.35;;;;;;;;;;256465;1095;103099;-71
2021/07/06 08:19:52;;;;;;;13.55;12.25;;;;;;;;;;255870;1094;103381;-73
2021/07/06 08:24:54;;;;;;;13.73;12.63;;;;;;;;;;256010;1096;103018;-71
2021/07/06 08:29:56;;;;;;;12.78;11.78;;;;;;;;;;255832;1096;103055;-73
2021/07/06 08:35:00;;;;;;;11.93;10.83;;;;;;;;;;256511;1096;103060;-71
2021/07/06 08:40:03;;;;;;;9.45;8.75;;;;;;;;;;255939;1095;103060;-74
2021/07/06 08:45:06;;;;;;;10.43;9.33;;;;;;;;;;255860;1096;103033;-75
2021/07/06 08:50:09;;;;;;;10.70;9.80;;;;;;;;;;255866;1096;103106;-75
2021/07/06 08:55:12;;;;;;;14.25;13.15;;;;;;;;;;256564;1095;103112;-76
2021/07/06 09:00:15;;;;;;;11.28;10.38;;;;;;;;;;256605;1096;103037;-75
2021/07/06 09:05:21;;;;;;;11.23;10.40;;;;;;;;;;256967;1095;103058;-76
2021/07/06 09:10:27;;;;;;;9.30;8.53;;;;;;;;;;258492;1096;103340;-75
2021/07/06 09:15:33;;;;;;;8.93;8.20;;;;;;;;;;256657;1096;103034;-74
2021/07/06 09:20:36;;;;;;;6.37;5.77;;;;;;;;;;255903;1094;103087;-71
2021/07/06 09:25:38;;;;;;;6.38;5.95;;;;;;;;;;256765;1096;103007;-72
2021/07/06 09:30:41;;;;;;;8.55;7.85;;;;;;;;;;255751;1096;103107;-71
2021/07/06 09:35:44;;;;;;;9.23;8.45;;;;;;;;;;255779;1095;103034;-72
2021/07/06 09:40:47;;;;;;;7.43;6.83;;;;;;;;;;255944;1094;103493;-72
2021/07/06 09:46:03;;;;;;;6.30;5.80;;;;;;;;;;255840;1094;103134;-72
2021/07/06 09:51:09;;;;;;;6.10;5.68;;;;;;;;;;255836;1096;103122;-72
2021/07/06 09:56:12;;;;;;;5.90;5.50;;;;;;;;;;255841;1095;103029;-74
2021/07/06 10:01:14;;;;;;;5.63;5.23;;;;;;;;;;255970;1094;103111;-74
2021/07/06 10:06:17;;;;;;;6.53;6.03;;;;;;;;;;255951;1095;103314;-74
2021/07/06 10:11:20;;;;;;;6.23;5.73;;;;;;;;;;255921;1096;103038;-79
2021/07/06 10:16:22;;;;;;;6.63;6.13;;;;;;;;;;257039;1095;103016;-75
2021/07/06 10:21:25;;;;;;;6.83;6.27;;;;;;;;;;256965;1096;103032;-78
2021/07/06 10:26:28;;;;;;;8.10;7.60;;;;;;;;;;258201;1095;103036;-78
2021/07/06 10:31:30;;;;;;;6.28;5.65;;;;;;;;;;257125;1096;103147;-74
2021/07/06 10:36:36;;;;;;;6.48;5.98;;;;;;;;;;256941;1095;103059;-74
2021/07/06 10:41:38;;;;;;;8.03;7.33;;;;;;;;;;257113;1095;103068;-75
2021/07/06 10:46:39;;;;;;;5.73;5.20;;;;;;;;;;255809;1095;103092;-76
2021/07/06 10:51:41;;;;;;;6.80;6.25;;;;;;;;;;255776;1095;103042;-72
2021/07/06 10:56:44;;;;;;;5.03;4.70;;;;;;;;;;255802;1094;103122;-72
2021/07/06 11:01:49;;;;;;;5.25;4.83;;;;;;;;;;256010;1096;103107;-72
2021/07/06 11:06:53;;;;;;;6.13;4.45;;;;;;;;;;256622;1096;103026;-73
2021/07/06 11:12:13;;;;;;;4.70;4.30;;;;;;;;;;256990;1095;103089;-76
2021/07/06 11:17:37;;;;;;;5.33;4.83;;;;;;;;;;256280;1094;103143;-75
2021/07/06 11:22:50;;;;;;;4.45;4.15;;;;;;;;;;255838;1096;103018;-74
2021/07/06 11:27:57;;;;;;;4.40;4.00;;;;;;;;;;256986;1095;103087;-75
2021/07/06 11:33:17;;;;;;;4.70;4.40;;;;;;;;;;256951;1095;103124;-75
2021/07/06 11:38:21;;;;;;;5.30;4.95;;;;;;;;;;257096;1095;103201;-75
2021/07/06 11:43:24;;;;;;;4.63;4.33;;;;;;;;;;260678;1095;102916;-76
2021/07/06 11:48:27;;;;;;;4.98;4.58;;;;;;;;;;258372;1095;103029;-74
2021/07/06 11:53:30;;;;;;;5.03;4.63;;;;;;;;;;260536;1096;103016;-75
2021/07/06 11:58:34;;;;;;;4.93;4.53;;;;;;;;;;257759;1096;103581;-71
2021/07/06 12:03:36;;;;;;;3.53;3.33;;;;;;;;;;257234;1096;103124;-73
2021/07/06 12:08:43;;;;;;;4.58;4.18;;;;;;;;;;257208;1095;103092;-71
2021/07/06 12:13:48;;;;;;;4.00;3.70;;;;;;;;;;256438;1096;103018;-75
2021/07/06 12:18:51;;;;;;;4.20;3.90;;;;;;;;;;256749;1096;103092;-70
2021/07/06 12:23:53;;;;;;;5.10;4.48;;;;;;;;;;256994;1094;103146;-72
2021/07/06 12:28:55;;;;;;;4.03;3.60;;;;;;;;;;256719;1096;103087;-75
2021/07/06 12:34:11;;;;;;;3.43;3.23;;;;;;;;;;255800;1096;103023;-74
2021/07/06 12:39:24;;;;;;;3.40;3.10;;;;;;;;;;256007;1095;103044;-75
2021/07/06 12:44:39;;;;;;;3.35;3.10;;;;;;;;;;256148;1096;103038;-75
2021/07/06 12:49:46;;;;;;;3.30;3.10;;;;;;;;;;256378;1094;103160;-74
2021/07/06 12:54:48;;;;;;;2.80;2.70;;;;;;;;;;256048;1095;103444;-74
2021/07/06 12:59:50;;;;;;;3.10;2.70;;;;;;;;;;256173;1095;103529;-73
2021/07/06 13:04:57;;;;;;;3.18;2.98;;;;;;;;;;256149;1096;103011;-74
2021/07/06 13:10:05;;;;;;;2.78;2.68;;;;;;;;;;256895;1095;103037;-78
2021/07/06 13:15:08;;;;;;;2.80;2.60;;;;;;;;;;255940;1095;103088;-75
2021/07/06 13:20:11;;;;;;;2.93;2.73;;;;;;;;;;256839;1095;103018;-76
2021/07/06 13:25:14;;;;;;;3.37;3.17;;;;;;;;;;257503;1095;103614;-71
2021/07/06 13:30:17;;;;;;;2.93;2.55;;;;;;;;;;257122;1095;103069;-72
2021/07/06 13:35:19;;;;;;;3.45;3.10;;;;;;;;;;256978;1095;103032;-72
2021/07/06 13:40:22;;;;;;;2.58;2.33;;;;;;;;;;256893;1095;103036;-72
2021/07/06 13:45:23;;;;;;;2.60;2.40;;;;;;;;;;256670;1095;105586;-71
2021/07/06 13:50:27;;;;;;;3.20;3.00;;;;;;;;;;256713;1097;103559;-72
2021/07/06 14:00:35;;;;;;;2.73;2.63;;;;;;;;;;256559;1094;103032;-70
2021/07/06 14:05:39;;;;;;;2.35;2.25;;;;;;;;;;256866;1095;103088;-71
2021/07/06 14:10:41;;;;;;;2.68;2.10;;;;;;;;;;256915;1094;103213;-72
2021/07/06 14:15:43;;;;;;;2.83;2.63;;;;;;;;;;256950;1094;103108;-75
2021/07/06 14:20:47;;;;;;;3.03;2.73;;;;;;;;;;256940;1095;103086;-71
2021/07/06 14:25:48;;;;;;;;;;;;;;;;;;256720;1096;102991;-72
2021/07/06 14:30:50;;;;;;;2.48;2.30;;;;;;;;;;257044;1095;103416;-75
2021/07/06 14:35:54;;;;;;;4.25;3.95;;;;;;;;;;256657;1095;103110;-75
2021/07/06 14:40:56;;;;;;;;;;;;;;;;;;256416;1095;103415;-74
2021/07/06 14:45:57;;;;;;;3.10;2.40;;;;;;;;;;256184;1096;103454;-76
2021/07/06 14:51:00;;;;;;;2.85;2.25;;;;;;;;;;256394;1095;103019;-72
2021/07/06 14:56:02;;;;;;;3.00;2.68;;;;;;;;;;256908;1096;103024;-74
2021/07/06 15:01:04;;;;;;;2.50;2.40;;;;;;;;;;256867;1096;103131;-74
2021/07/06 15:06:06;;;;;;;2.80;2.70;;;;;;;;;;256903;1095;103086;-73
2021/07/06 15:11:08;;;;;;;2.85;2.65;;;;;;;;;;256945;1096;103114;-74
2021/07/06 15:16:10;;;;;;;2.30;2.20;;;;;;;;;;256137;1096;103055;-69
2021/07/06 15:21:13;;;;;;;2.65;2.45;;;;;;;;;;258025;1095;103025;-76
2021/07/06 15:26:14;;;;;;;2.20;2.10;;;;;;;;;;258701;1096;103886;-74
2021/07/06 15:31:16;;;;;;;3.78;3.58;;;;;;;;;;258970;1094;103022;-75
2021/07/06 15:36:18;;;;;;;4.53;4.13;;;;;;;;;;256169;1093;103089;-75
2021/07/06 15:41:20;;;;;;;2.73;2.53;;;;;;;;;;255941;1093;103092;-75
2021/07/06 15:46:22;;;;;;;3.05;2.85;;;;;;;;;;256596;1093;103105;-74
2021/07/06 15:51:24;;;;;;;2.98;2.80;;;;;;;;;;256042;1093;103089;-76
2021/07/06 15:56:26;;;;;;;3.30;3.10;;;;;;;;;;255930;1093;103018;-71
2021/07/06 16:01:28;;;;;;;3.08;2.88;;;;;;;;;;256395;1093;103015;-72
2021/07/06 16:06:29;;;;;;;2.47;2.37;;;;;;;;;;256100;1094;103044;-72
2021/07/06 16:11:32;;;;;;;3.13;2.93;;;;;;;;;;256366;1093;103463;-71
2021/07/06 16:16:33;;;;;;;4.90;4.50;;;;;;;;;;256038;1093;103093;-75
2021/07/06 16:21:35;;;;;;;3.45;3.15;;;;;;;;;;256003;1093;103041;-74
2021/07/06 16:26:37;;;;;;;3.13;2.93;;;;;;;;;;256137;1092;103052;-74
2021/07/06 16:31:40;;;;;;;3.50;3.20;;;;;;;;;;256815;1092;103093;-75
2021/07/06 16:36:42;;;;;;;5.60;5.20;;;;;;;;;;257133;1093;103447;-78
2021/07/06 16:41:45;;;;;;;3.18;2.93;;;;;;;;;;256620;1093;103032;-75
2021/07/06 16:46:47;;;;;;;5.05;3.15;;;;;;;;;;257132;1093;103038;-76
2021/07/06 18:06:56;;;;;;;4.88;4.58;;;;;;;;;;256723;1094;103095;-73
2021/07/06 18:11:58;;;;;;;4.37;4.10;;;;;;;;;;256820;1096;103111;-74
2021/07/06 18:17:00;;;;;;;5.40;5.00;;;;;;;;;;256793;1093;103038;-74
2021/07/06 18:22:02;;;;;;;5.98;5.40;;;;;;;;;;256701;1092;103518;-73
2021/07/06 18:27:05;;;;;;;4.53;4.23;;;;;;;;;;257144;1093;103364;-74
2021/07/06 18:32:07;;;;;;;5.08;4.70;;;;;;;;;;257162;1091;103721;-74
2021/07/06 18:37:09;;;;;;;6.40;5.55;;;;;;;;;;257763;1093;103316;-74
2021/07/06 18:42:11;;;;;;;7.00;6.40;;;;;;;;;;257117;1092;103074;-72
2021/07/06 18:47:13;;;;;;;7.23;6.60;;;;;;;;;;257004;1092;103081;-76
2021/07/06 18:52:15;;;;;;;8.55;7.73;;;;;;;;;;256874;1093;103094;-73
2021/07/06 18:57:17;;;;;;;7.90;7.23;;;;;;;;;;257602;1092;103030;-74
2021/07/06 19:07:41;;;;;;;14.15;8.50;;;;;;;;;;259766;1093;103087;-78
2021/07/06 19:12:44;;;;;;;7.68;6.78;;;;;;;;;;257723;1092;103367;-73
2021/07/06 19:17:48;;;;;;;7.80;7.18;;;;;;;;;;256961;1093;103351;-74
2021/07/06 19:22:50;;;;;;;6.63;5.98;;;;;;;;;;258506;1093;103364;-76
2021/07/06 19:27:56;;;;;;;7.73;7.05;;;;;;;;;;258819;1092;102991;-73
2021/07/06 19:32:58;;;;;;;8.23;6.20;;;;;;;;;;256799;1092;103010;-73
2021/07/06 19:38:00;;;;;;;8.50;6.87;;;;;;;;;;256301;1093;103616;-73
2021/07/06 19:43:02;;;;;;;11.88;10.58;;;;;;;;;;256783;1093;103093;-72
2021/07/06 19:48:04;;;;;;;8.00;7.25;;;;;;;;;;256382;1092;103044;-73
2021/07/06 19:53:06;;;;;;;7.60;6.75;;;;;;;;;;257040;1092;103481;-73
2021/07/06 19:58:07;;;;;;;8.15;7.40;;;;;;;;;;256883;1093;103065;-74
2021/07/06 20:03:09;;;;;;;8.08;7.38;;;;;;;;;;256887;1095;104871;-77
2021/07/06 20:08:11;;;;;;;8.30;6.88;;;;;;;;;;257058;1096;103115;-73
2021/07/06 20:13:14;;;;;;;7.97;7.37;;;;;;;;;;256325;1093;102993;-74
2021/07/06 20:18:16;;;;;;;9.03;8.33;;;;;;;;;;255849;1096;103087;-72
2021/07/06 20:23:18;;;;;;;9.90;8.48;;;;;;;;;;255966;1093;103137;-75
2021/07/06 20:28:20;;;;;;;12.85;9.38;;;;;;;;;;256053;1091;103046;-73
2021/07/06 20:33:22;;;;;;;13.60;9.33;;;;;;;;;;256051;1093;103460;-75
2021/07/06 20:38:24;;;;;;;10.13;9.15;;;;;;;;;;256728;1093;103419;-74
2021/07/06 20:43:26;;;;;;;10.45;9.30;;;;;;;;;;256166;1093;103489;-72
2021/07/06 20:48:28;;;;;;;10.63;9.63;;;;;;;;;;255946;1093;103013;-72
2021/07/06 20:53:31;;;;;;;10.17;8.67;;;;;;;;;;256063;1093;103072;-73
2021/07/06 20:58:33;;;;;;;9.23;8.43;;;;;;;;;;255965;1092;103060;-72
2021/07/06 21:03:35;;;;;;;9.28;8.38;;;;;;;;;;256186;1093;103111;-70
2021/07/06 21:08:37;;;;;;;9.95;8.25;;;;;;;;;;256112;1093;102993;-76
2021/07/06 21:13:39;;;;;;;9.48;8.58;;;;;;;;;;256908;1092;102996;-74
2021/07/06 21:18:41;;;;;;;9.20;8.30;;;;;;;;;;256945;1093;103539;-74
2021/07/06 21:23:43;;;;;;;9.83;8.93;;;;;;;;;;255874;1093;103233;-74
2021/07/06 21:28:44;;;;;;;9.60;8.90;;;;;;;;;;256095;1093;103087;-72
2021/07/06 21:33:46;;;;;;;9.73;8.73;;;;;;;;;;256017;1093;104084;-74
2021/07/06 21:38:48;;;;;;;9.97;9.03;;;;;;;;;;255892;1092;103163;-73
2021/07/06 21:43:50;;;;;;;9.93;9.13;;;;;;;;;;256530;1093;103087;-77
2021/07/06 21:48:52;;;;;;;10.13;9.13;;;;;;;;;;256396;1093;103065;-73
2021/07/06 21:53:54;;;;;;;9.50;8.80;;;;;;;;;;255975;1092;103447;-75
2021/07/06 21:58:55;;;;;;;10.28;9.30;;;;;;;;;;255964;1093;103029;-75
2021/07/06 22:03:57;;;;;;;10.33;9.35;;;;;;;;;;255886;1093;103103;-74
2021/07/06 22:08:59;;;;;;;10.58;9.73;;;;;;;;;;255810;1093;103494;-74
2021/07/06 22:14:01;;;;;;;11.25;10.28;;;;;;;;;;255846;1093;103105;-74
2021/07/06 22:19:03;;;;;;;11.03;10.23;;;;;;;;;;255891;1094;103089;-72
2021/07/06 22:24:06;;;;;;;11.45;10.58;;;;;;;;;;256669;1095;103354;-73
2021/07/06 22:29:08;;;;;;;12.40;11.30;;;;;;;;;;256038;1093;102993;-72
2021/07/06 22:34:09;;;;;;;11.90;11.00;;;;;;;;;;256220;1092;103099;-72
2021/07/06 22:39:11;;;;;;;12.40;11.50;;;;;;;;;;256293;1093;103111;-75
2021/07/06 22:44:13;;;;;;;12.40;11.40;;;;;;;;;;257697;1095;103058;-73
2021/07/06 22:49:15;;;;;;;13.40;12.25;;;;;;;;;;256774;1093;103103;-75
2021/07/06 22:54:17;;;;;;;13.03;12.10;;;;;;;;;;255966;1093;103029;-75
2021/07/06 22:59:19;;;;;;;13.35;12.25;;;;;;;;;;256069;1093;103108;-73
2021/07/06 23:04:20;;;;;;;12.15;11.13;;;;;;;;;;255779;1096;103457;-73
2021/07/06 23:09:22;;;;;;;14.63;13.35;;;;;;;;;;256164;1093;103131;-71
2021/07/06 23:14:24;;;;;;;13.48;12.38;;;;;;;;;;256323;1093;103103;-71
2021/07/06 23:19:27;;;;;;;13.93;12.70;;;;;;;;;;257112;1093;103022;-72
2021/07/06 23:24:29;;;;;;;14.43;13.18;;;;;;;;;;255986;1092;103157;-73
2021/07/06 23:29:30;;;;;;;14.45;13.15;;;;;;;;;;255736;1093;103473;-73
2021/07/06 23:34:33;;;;;;;14.10;12.95;;;;;;;;;;256804;1093;103148;-73
2021/07/06 23:39:34;;;;;;;14.80;13.40;;;;;;;;;;255824;1093;103048;-75
2021/07/06 23:44:36;;;;;;;14.20;13.10;;;;;;;;;;255809;1093;103141;-74
2021/07/06 23:49:38;;;;;;;16.77;15.47;;;;;;;;;;255699;1093;103031;-74
2021/07/06 23:54:40;;;;;;;14.48;13.28;;;;;;;;;;255744;1093;103147;-72
2021/07/06 23:59:43;;;;;;;15.27;14.07;;;;;;;;;;256121;1093;105041;-74
